createdAt,value
2023-09-10T00:00:24.044Z,81.37
2023-09-10T00:02:50.574Z,81.84
2023-09-10T00:05:17.243Z,81.70
2023-09-10T00:07:43.804Z,82.05
2023-09-10T00:10:10.632Z,81.85
2023-09-10T00:12:37.255Z,82.00
2023-09-10T00:15:05.425Z,82.01
2023-09-10T00:17:31.995Z,81.76
2023-09-10T00:19:58.582Z,81.96
2023-09-10T00:22:25.138Z,82.49
2023-09-10T00:24:51.736Z,82.26
2023-09-10T00:27:18.271Z,83.24
2023-09-10T00:29:44.810Z,82.64
2023-09-10T00:32:11.385Z,82.74
2023-09-10T00:34:39.760Z,83.14
2023-09-10T00:37:08.659Z,82.93
2023-09-10T00:39:35.262Z,82.84
2023-09-10T00:42:01.786Z,83.11
2023-09-10T00:44:28.435Z,83.14
2023-09-10T00:46:55.789Z,83.31
2023-09-10T00:49:22.647Z,83.99
2023-09-10T00:51:49.976Z,83.59
2023-09-10T00:54:17.893Z,83.19
2023-09-10T00:56:44.566Z,83.41
2023-09-10T00:59:11.388Z,83.89
2023-09-10T01:01:38.147Z,83.89
2023-09-10T01:04:04.954Z,84.10
2023-09-10T01:06:31.615Z,83.88
2023-09-10T01:08:58.254Z,84.02
2023-09-10T01:11:45.751Z,83.93
2023-09-10T01:14:32.520Z,84.77
2023-09-10T01:17:09.421Z,83.94
2023-09-10T01:20:13.162Z,86.14
2023-09-10T01:23:02.440Z,85.60
2023-09-10T01:25:30.287Z,84.30
2023-09-10T01:27:56.802Z,83.95
2023-09-10T01:30:23.467Z,84.39
2023-09-10T01:32:57.787Z,85.00
2023-09-10T01:35:43.297Z,85.19
2023-09-10T01:38:27.604Z,85.71
2023-09-10T01:41:03.719Z,85.27
2023-09-10T01:43:32.388Z,84.86
2023-09-10T01:45:59.086Z,84.64
2023-09-10T01:48:27.751Z,84.44
2023-09-10T01:50:55.415Z,84.73
2023-09-10T01:53:21.945Z,85.01
2023-09-10T01:55:48.515Z,85.25
2023-09-10T01:58:16.086Z,85.61
2023-09-10T02:00:43.094Z,85.72
2023-09-10T02:03:09.778Z,86.01
2023-09-10T02:05:36.397Z,85.66
2023-09-10T02:08:03.501Z,85.57
2023-09-10T02:10:33.618Z,86.02
2023-09-10T02:13:00.111Z,88.80
2023-09-10T02:15:27.687Z,86.00
2023-09-10T02:17:54.764Z,85.61
2023-09-10T02:20:21.470Z,85.88
2023-09-10T02:22:48.089Z,85.64
2023-09-10T02:25:15.137Z,85.80
2023-09-10T02:27:41.794Z,85.93
2023-09-10T02:30:09.222Z,85.80
2023-09-10T02:32:37.196Z,85.97
2023-09-10T02:35:04.487Z,85.65
2023-09-10T02:37:32.784Z,85.84
2023-09-10T02:39:59.323Z,86.07
2023-09-10T02:42:25.852Z,85.96
2023-09-10T02:44:52.404Z,85.89
2023-09-10T02:47:19.065Z,85.47
2023-09-10T02:49:45.633Z,85.89
2023-09-10T02:52:12.186Z,85.34
2023-09-10T02:54:38.718Z,85.80
2023-09-10T02:57:05.307Z,86.23
2023-09-10T02:59:31.855Z,85.51
2023-09-10T03:01:58.516Z,85.81
2023-09-10T03:04:25.225Z,85.58
2023-09-10T03:06:52.734Z,85.82
2023-09-10T03:09:19.414Z,86.29
2023-09-10T03:11:46.839Z,86.61
2023-09-10T03:14:13.416Z,86.37
2023-09-10T03:16:41.004Z,86.52
2023-09-10T03:19:07.881Z,86.40
2023-09-10T03:21:36.639Z,86.21
2023-09-10T03:24:03.212Z,86.07
2023-09-10T03:26:29.731Z,86.26
2023-09-10T03:28:56.238Z,87.26
2023-09-10T03:31:22.857Z,86.72
2023-09-10T03:33:50.048Z,86.92
2023-09-10T03:36:16.564Z,86.60
2023-09-10T03:38:43.117Z,86.75
2023-09-10T03:41:09.717Z,86.70
2023-09-10T03:43:36.335Z,86.63
2023-09-10T03:46:02.965Z,86.81
2023-09-10T03:48:29.468Z,86.57
2023-09-10T03:50:56.140Z,86.48
2023-09-10T03:53:22.712Z,86.51
2023-09-10T03:55:49.345Z,86.80
2023-09-10T03:58:15.888Z,87.16
2023-09-10T04:00:43.117Z,86.78
2023-09-10T04:03:09.950Z,87.36
2023-09-10T04:05:36.793Z,87.30
2023-09-10T04:08:04.435Z,87.13
2023-09-10T04:10:31.203Z,87.27
2023-09-10T04:12:57.715Z,87.47
2023-09-10T04:15:24.222Z,87.61
2023-09-10T04:17:50.859Z,87.78
2023-09-10T04:20:17.690Z,87.70
2023-09-10T04:22:44.241Z,87.77
2023-09-10T04:25:10.845Z,87.72
2023-09-10T04:27:37.487Z,87.61
2023-09-10T04:30:05.637Z,87.89
2023-09-10T04:32:32.675Z,87.90
2023-09-10T04:34:59.278Z,88.09
2023-09-10T04:37:25.936Z,88.03
2023-09-10T04:39:52.955Z,88.08
2023-09-10T04:42:19.463Z,88.18
2023-09-10T04:44:46.056Z,88.18
2023-09-10T04:47:12.686Z,88.45
2023-09-10T04:49:39.348Z,88.39
2023-09-10T04:52:06.183Z,87.97
2023-09-10T04:54:32.884Z,88.22
2023-09-10T04:57:00.655Z,88.00
2023-09-10T04:59:27.588Z,88.24
2023-09-10T05:01:54.271Z,88.39
2023-09-10T05:04:21.129Z,88.39
2023-09-10T05:06:47.784Z,88.53
2023-09-10T05:09:14.415Z,88.50
2023-09-10T05:11:40.951Z,88.22
2023-09-10T05:14:07.562Z,88.73
2023-09-10T05:16:34.217Z,89.14
2023-09-10T05:19:00.833Z,88.84
2023-09-10T05:21:27.349Z,88.40
2023-09-10T05:23:53.951Z,88.88
2023-09-10T05:26:20.563Z,88.47
2023-09-10T05:28:47.635Z,88.57
2023-09-10T05:31:14.470Z,88.38
2023-09-10T05:33:41.157Z,88.25
2023-09-10T05:36:08.050Z,87.94
2023-09-10T05:38:34.742Z,87.95
2023-09-10T05:41:05.089Z,88.54
2023-09-10T05:43:32.472Z,88.67
2023-09-10T05:45:59.564Z,88.55
2023-09-10T05:48:26.207Z,88.48
2023-09-10T05:50:57.958Z,88.79
2023-09-10T05:53:24.697Z,88.51
2023-09-10T05:55:51.329Z,88.74
2023-09-10T05:58:17.983Z,88.70
2023-09-10T06:00:44.480Z,89.30
2023-09-10T06:03:11.070Z,88.29
2023-09-10T06:05:37.742Z,87.88
2023-09-10T06:08:04.728Z,87.65
2023-09-10T06:10:31.312Z,86.71
2023-09-10T06:12:57.854Z,85.80
2023-09-10T06:15:24.773Z,85.06
2023-09-10T06:17:51.369Z,84.24
2023-09-10T06:20:17.975Z,83.37
2023-09-10T06:22:44.624Z,82.46
2023-09-10T06:25:11.206Z,81.67
2023-09-10T06:27:37.850Z,81.56
2023-09-10T06:30:04.930Z,80.51
2023-09-10T06:32:31.495Z,78.13
2023-09-10T06:34:58.171Z,75.07
2023-09-10T06:37:25.051Z,74.46
2023-09-10T06:39:51.733Z,73.72
2023-09-10T06:42:18.337Z,73.91
2023-09-10T06:44:44.993Z,72.47
2023-09-10T06:47:12.175Z,71.57
2023-09-10T06:49:41.510Z,71.14
2023-09-10T06:52:10.848Z,69.33
2023-09-10T06:54:37.490Z,68.89
2023-09-10T06:57:04.390Z,66.74
2023-09-10T06:59:31.128Z,66.04
2023-09-10T07:01:57.673Z,65.11
2023-09-10T07:04:25.878Z,64.79
2023-09-10T07:06:53.925Z,63.30
2023-09-10T07:09:24.137Z,61.29
2023-09-10T07:11:52.295Z,61.72
2023-09-10T07:14:19.982Z,61.27
2023-09-10T07:16:47.723Z,57.59
2023-09-10T07:19:15.131Z,58.69
2023-09-10T07:21:41.754Z,58.85
2023-09-10T07:24:10.521Z,59.17
2023-09-10T07:26:38.105Z,59.70
2023-09-10T07:29:08.829Z,58.06
2023-09-10T07:31:36.446Z,59.36
2023-09-10T07:34:03.948Z,57.93
2023-09-10T07:36:30.594Z,57.17
2023-09-10T07:38:57.188Z,56.30
2023-09-10T07:41:23.808Z,56.35
2023-09-10T07:43:50.884Z,52.70
2023-09-10T07:46:17.407Z,55.88
2023-09-10T07:48:43.950Z,54.30
2023-09-10T07:51:10.449Z,52.90
2023-09-10T07:53:36.965Z,53.95
2023-09-10T07:56:04.984Z,52.56
2023-09-10T07:58:31.697Z,52.35
2023-09-10T08:00:58.625Z,52.27
2023-09-10T08:03:25.501Z,52.66
2023-09-10T08:05:52.337Z,50.50
2023-09-10T08:08:18.909Z,50.37
2023-09-10T08:10:46.883Z,50.18
2023-09-10T08:13:14.610Z,50.96
2023-09-10T08:15:42.246Z,48.51
2023-09-10T08:18:12.321Z,50.46
2023-09-10T08:20:43.353Z,49.32
2023-09-10T08:23:10.686Z,49.49
2023-09-10T08:25:37.575Z,48.66
2023-09-10T08:28:04.766Z,47.91
2023-09-10T08:30:31.711Z,47.91
2023-09-10T08:32:58.664Z,46.90
2023-09-10T08:35:44.559Z,45.87
2023-09-10T08:38:11.301Z,46.79
2023-09-10T08:40:51.431Z,46.80
2023-09-10T08:43:23.024Z,47.37
2023-09-10T08:45:50.536Z,46.82
2023-09-10T08:48:19.973Z,46.73
2023-09-10T08:50:47.950Z,46.36
2023-09-10T08:53:17.455Z,42.82
2023-09-10T08:55:47.452Z,44.58
2023-09-10T08:58:15.159Z,45.00
2023-09-10T09:00:44.290Z,43.32
2023-09-10T09:03:11.270Z,43.67
2023-09-10T09:05:40.782Z,43.15
2023-09-10T09:08:15.957Z,42.82
2023-09-10T09:10:42.868Z,44.29
2023-09-10T09:13:12.079Z,43.01
2023-09-10T09:15:41.678Z,41.81
2023-09-10T09:18:12.384Z,42.86
2023-09-10T09:20:41.168Z,41.56
2023-09-10T09:23:13.944Z,41.61
2023-09-10T09:25:41.332Z,40.72
2023-09-10T09:28:11.596Z,42.28
2023-09-10T09:30:38.295Z,43.13
2023-09-10T09:33:05.927Z,43.55
2023-09-10T09:35:35.653Z,41.12
2023-09-10T09:38:06.770Z,42.90
2023-09-10T09:40:35.006Z,41.87
2023-09-10T09:43:16.847Z,41.88
2023-09-10T09:45:45.502Z,44.43
2023-09-10T09:48:12.147Z,42.57
2023-09-10T09:50:39.358Z,44.40
2023-09-10T09:53:05.969Z,44.35
2023-09-10T09:55:32.629Z,44.06
2023-09-10T09:57:59.253Z,44.66
2023-09-10T10:00:25.798Z,44.77
2023-09-10T10:02:53.451Z,44.45
2023-09-10T10:05:20.282Z,43.17
2023-09-10T10:07:52.362Z,43.88
2023-09-10T10:10:20.455Z,43.06
2023-09-10T10:12:47.195Z,43.11
2023-09-10T10:15:14.569Z,44.08
2023-09-10T10:17:43.702Z,41.99
2023-09-10T10:20:10.910Z,42.68
2023-09-10T10:22:38.107Z,43.16
2023-09-10T10:25:08.129Z,40.96
2023-09-10T10:27:37.601Z,41.98
2023-09-10T10:30:05.019Z,41.31
2023-09-10T10:32:43.498Z,40.88
2023-09-10T10:35:11.357Z,40.40
2023-09-10T10:37:53.398Z,40.87
2023-09-10T10:40:26.741Z,41.30
2023-09-10T10:43:09.011Z,40.53
2023-09-10T10:45:36.344Z,40.60
2023-09-10T10:48:12.955Z,41.63
2023-09-10T10:50:40.805Z,42.23
2023-09-10T10:53:12.582Z,42.29
2023-09-10T10:55:40.738Z,40.70
2023-09-10T10:58:07.324Z,41.72
2023-09-10T11:00:34.175Z,39.93
2023-09-10T11:03:12.988Z,40.77
2023-09-10T11:06:06.880Z,40.53
2023-09-10T11:08:41.431Z,39.96
2023-09-10T11:11:09.979Z,40.70
2023-09-10T11:13:59.796Z,38.59
2023-09-10T11:16:29.987Z,39.91
2023-09-10T11:18:56.627Z,39.83
2023-09-10T11:21:55.542Z,39.05
2023-09-10T11:24:22.119Z,38.70
2023-09-10T11:26:49.134Z,39.69
2023-09-10T11:29:20.010Z,39.47
2023-09-10T11:31:53.286Z,40.28
2023-09-10T11:34:28.742Z,39.49
2023-09-10T11:37:06.258Z,40.25
2023-09-10T11:39:35.384Z,39.74
2023-09-10T11:42:05.508Z,39.01
2023-09-10T11:44:32.065Z,39.92
2023-09-10T11:46:58.779Z,38.57
2023-09-10T11:49:26.211Z,38.83
2023-09-10T11:51:56.544Z,38.05
2023-09-10T11:54:23.928Z,38.05
2023-09-10T11:56:52.822Z,38.68
2023-09-10T11:59:22.025Z,39.72
2023-09-10T12:01:48.546Z,40.07
2023-09-10T12:04:18.066Z,40.56
2023-09-10T12:06:45.564Z,39.98
2023-09-10T12:09:14.284Z,40.39
2023-09-10T12:11:43.095Z,40.36
2023-09-10T12:14:10.008Z,39.76
2023-09-10T12:16:36.819Z,40.08
2023-09-10T12:19:03.710Z,40.47
2023-09-10T12:21:30.398Z,40.72
2023-09-10T12:23:57.163Z,41.13
2023-09-10T12:26:23.827Z,40.90
2023-09-10T12:28:53.172Z,40.37
2023-09-10T12:31:20.780Z,39.64
2023-09-10T12:33:47.448Z,40.18
2023-09-10T12:36:15.409Z,39.42
2023-09-10T12:38:42.503Z,39.54
2023-09-10T12:41:09.844Z,38.26
2023-09-10T12:43:36.576Z,38.64
2023-09-10T12:46:03.251Z,38.74
2023-09-10T12:48:30.334Z,39.78
2023-09-10T12:50:58.864Z,39.49
2023-09-10T12:53:25.840Z,39.46
2023-09-10T12:55:55.804Z,39.87
2023-09-10T12:58:22.863Z,39.28
2023-09-10T13:00:59.739Z,37.75
2023-09-10T13:03:28.283Z,38.02
2023-09-10T13:05:55.410Z,39.05
2023-09-10T13:08:22.152Z,38.17
2023-09-10T13:10:48.904Z,38.10
2023-09-10T13:13:15.489Z,39.10
2023-09-10T13:15:42.053Z,39.14
2023-09-10T13:18:08.896Z,39.61
2023-09-10T13:20:35.725Z,38.59
2023-09-10T13:23:02.346Z,39.26
2023-09-10T13:25:28.953Z,39.16
2023-09-10T13:27:55.639Z,39.17
2023-09-10T13:30:22.200Z,39.11
2023-09-10T13:32:48.809Z,39.10
2023-09-10T13:35:15.424Z,40.66
2023-09-10T13:37:42.769Z,39.83
2023-09-10T13:40:10.760Z,39.51
2023-09-10T13:42:37.279Z,39.98
2023-09-10T13:45:04.287Z,39.60
2023-09-10T13:47:31.658Z,39.97
2023-09-10T13:49:58.320Z,39.39
2023-09-10T13:52:24.954Z,39.29
2023-09-10T13:54:51.609Z,39.50
2023-09-10T13:57:18.134Z,39.89
2023-09-10T13:59:44.606Z,40.66
2023-09-10T14:02:11.190Z,40.39
2023-09-10T14:04:37.862Z,40.33
2023-09-10T14:07:04.712Z,40.65
2023-09-10T14:09:31.261Z,40.60
2023-09-10T14:11:57.775Z,40.70
2023-09-10T14:14:24.503Z,41.31
2023-09-10T14:16:51.037Z,41.07
2023-09-10T14:19:17.568Z,41.49
2023-09-10T14:21:44.135Z,40.96
2023-09-10T14:24:10.746Z,40.83
2023-09-10T14:26:37.293Z,41.14
2023-09-10T14:29:03.979Z,41.00
2023-09-10T14:31:30.696Z,41.05
2023-09-10T14:33:57.263Z,41.69
2023-09-10T14:36:24.667Z,41.59
2023-09-10T14:38:51.293Z,41.48
2023-09-10T14:41:18.680Z,41.44
2023-09-10T14:43:45.395Z,41.11
2023-09-10T14:46:12.058Z,40.50
2023-09-10T14:48:38.679Z,40.83
2023-09-10T14:51:05.202Z,41.22
2023-09-10T14:53:33.251Z,41.19
2023-09-10T14:55:59.957Z,41.01
2023-09-10T14:58:26.699Z,40.88
2023-09-10T15:00:53.509Z,40.54
2023-09-10T15:03:22.464Z,40.84
2023-09-10T15:05:49.401Z,40.99
2023-09-10T15:08:16.032Z,40.94
2023-09-10T15:10:42.761Z,41.25
2023-09-10T15:13:09.309Z,40.73
2023-09-10T15:15:36.011Z,41.14
2023-09-10T15:18:02.701Z,41.27
2023-09-10T15:20:29.380Z,40.90
2023-09-10T15:22:55.979Z,40.92
2023-09-10T15:25:22.527Z,40.99
2023-09-10T15:27:49.148Z,40.56
2023-09-10T15:30:15.847Z,41.25
2023-09-10T15:32:42.480Z,40.60
2023-09-10T15:35:09.187Z,40.34
2023-09-10T15:37:35.716Z,40.88
2023-09-10T15:40:02.337Z,40.94
2023-09-10T15:42:28.853Z,41.03
2023-09-10T15:44:55.389Z,41.40
2023-09-10T15:47:21.969Z,42.47
2023-09-10T15:49:48.556Z,41.90
2023-09-10T15:52:15.303Z,42.12
2023-09-10T15:54:41.827Z,41.98
2023-09-10T15:57:08.471Z,42.45
2023-09-10T15:59:35.124Z,42.76
2023-09-10T16:02:17.437Z,43.99
2023-09-10T16:04:44.186Z,43.10
2023-09-10T16:07:10.835Z,42.93
2023-09-10T16:09:37.505Z,43.33
2023-09-10T16:12:04.442Z,43.45
2023-09-10T16:14:31.050Z,43.43
2023-09-10T16:16:57.590Z,42.63
2023-09-10T16:19:24.318Z,43.66
2023-09-10T16:21:50.957Z,44.40
2023-09-10T16:24:17.577Z,44.60
2023-09-10T16:26:44.222Z,44.75
2023-09-10T16:29:10.962Z,45.56
2023-09-10T16:31:37.575Z,45.47
2023-09-10T16:34:04.293Z,44.80
2023-09-10T16:36:34.629Z,44.50
2023-09-10T16:39:01.922Z,44.78
2023-09-10T16:41:28.590Z,44.50
2023-09-10T16:43:55.155Z,45.35
2023-09-10T16:46:22.170Z,45.27
2023-09-10T16:48:48.731Z,45.87
2023-09-10T16:51:15.241Z,45.88
2023-09-10T16:53:42.971Z,46.34
2023-09-10T16:56:09.787Z,46.79
2023-09-10T16:58:36.300Z,46.66
2023-09-10T17:01:02.878Z,47.16
2023-09-10T17:03:29.696Z,47.70
2023-09-10T17:05:57.684Z,49.25
2023-09-10T17:08:24.257Z,49.64
2023-09-10T17:10:51.122Z,49.38
2023-09-10T17:13:19.033Z,49.29
2023-09-10T17:15:45.632Z,49.29
2023-09-10T17:18:12.421Z,49.69
2023-09-10T17:20:39.006Z,49.53
2023-09-10T17:23:05.606Z,49.62
2023-09-10T17:25:32.679Z,49.42
2023-09-10T17:27:59.264Z,49.15
2023-09-10T17:30:25.822Z,49.92
2023-09-10T17:32:57.486Z,51.56
2023-09-10T17:35:24.530Z,52.39
2023-09-10T17:37:52.341Z,53.27
2023-09-10T17:40:18.921Z,54.10
2023-09-10T17:42:45.632Z,54.82
2023-09-10T17:45:12.199Z,55.36
2023-09-10T17:47:38.927Z,55.47
2023-09-10T17:50:07.992Z,55.93
2023-09-10T17:52:35.872Z,55.98
2023-09-10T17:55:06.227Z,56.58
2023-09-10T17:57:34.250Z,56.49
2023-09-10T18:00:00.853Z,58.19
2023-09-10T18:02:28.372Z,57.72
2023-09-10T18:04:55.309Z,58.25
2023-09-10T18:07:21.969Z,59.31
2023-09-10T18:09:49.373Z,59.75
2023-09-10T18:12:16.022Z,59.71
2023-09-10T18:14:42.910Z,59.81
2023-09-10T18:17:09.844Z,60.34
2023-09-10T18:19:36.391Z,60.71
2023-09-10T18:22:03.266Z,61.50
2023-09-10T18:24:29.898Z,62.12
2023-09-10T18:26:58.452Z,61.34
2023-09-10T18:29:25.516Z,62.44
2023-09-10T18:31:52.637Z,62.61
2023-09-10T18:34:19.640Z,62.91
2023-09-10T18:36:46.202Z,62.79
2023-09-10T18:39:13.291Z,62.68
2023-09-10T18:41:40.438Z,63.20
2023-09-10T18:44:08.048Z,63.17
2023-09-10T18:46:34.841Z,63.86
2023-09-10T18:49:01.388Z,63.87
2023-09-10T18:51:28.008Z,63.87
2023-09-10T18:53:54.621Z,65.07
2023-09-10T18:56:21.326Z,64.57
2023-09-10T18:58:47.938Z,64.82
2023-09-10T19:01:14.588Z,65.31
2023-09-10T19:03:41.809Z,65.81
2023-09-10T19:06:08.714Z,65.94
2023-09-10T19:08:35.290Z,65.71
2023-09-10T19:11:01.932Z,66.18
2023-09-10T19:13:28.556Z,67.06
2023-09-10T19:15:55.152Z,66.22
2023-09-10T19:18:21.807Z,66.78
2023-09-10T19:20:50.008Z,66.68
2023-09-10T19:23:16.611Z,67.33
2023-09-10T19:25:43.841Z,67.57
2023-09-10T19:28:10.379Z,67.72
2023-09-10T19:30:38.049Z,67.80
2023-09-10T19:33:05.261Z,68.58
2023-09-10T19:35:31.989Z,69.03
2023-09-10T19:37:58.690Z,68.68
2023-09-10T19:40:25.337Z,68.88
2023-09-10T19:42:51.961Z,69.43
2023-09-10T19:45:18.718Z,69.78
2023-09-10T19:47:46.355Z,69.81
2023-09-10T19:50:13.119Z,69.76
2023-09-10T19:52:44.516Z,70.00
2023-09-10T19:55:11.739Z,69.93
2023-09-10T19:57:41.626Z,70.55
2023-09-10T20:00:10.425Z,73.98
2023-09-10T20:02:39.899Z,69.67
2023-09-10T20:05:07.333Z,70.36
2023-09-10T20:07:33.945Z,70.42
2023-09-10T20:10:01.081Z,70.91
2023-09-10T20:12:27.728Z,70.95
2023-09-10T20:14:54.354Z,71.16
2023-09-10T20:17:21.053Z,71.17
2023-09-10T20:19:47.604Z,71.84
2023-09-10T20:22:15.514Z,72.14
2023-09-10T20:24:42.136Z,71.46
2023-09-10T20:27:08.700Z,71.98
2023-09-10T20:29:35.440Z,72.08
2023-09-10T20:32:02.027Z,72.01
2023-09-10T20:34:28.531Z,72.00
2023-09-10T20:36:55.025Z,72.36
2023-09-10T20:39:21.546Z,72.68
2023-09-10T20:41:48.236Z,72.42
2023-09-10T20:44:14.785Z,72.78
2023-09-10T20:46:41.426Z,72.98
2023-09-10T20:49:07.968Z,73.51
2023-09-10T20:51:34.602Z,73.52
2023-09-10T20:54:01.224Z,73.86
2023-09-10T20:56:27.823Z,73.38
2023-09-10T20:58:54.742Z,73.60
2023-09-10T21:01:21.581Z,74.20
2023-09-10T21:03:48.654Z,74.10
2023-09-10T21:06:15.706Z,74.29
2023-09-10T21:08:42.584Z,74.52
2023-09-10T21:11:09.464Z,74.82
2023-09-10T21:13:36.045Z,74.58
2023-09-10T21:16:03.040Z,75.27
2023-09-10T21:18:29.732Z,75.36
2023-09-10T21:20:56.385Z,75.65
2023-09-10T21:23:25.149Z,75.33
2023-09-10T21:25:51.681Z,76.11
2023-09-10T21:28:18.178Z,76.22
2023-09-10T21:30:49.194Z,76.44
2023-09-10T21:33:15.950Z,75.86
2023-09-10T21:35:46.434Z,77.10
2023-09-10T21:38:14.896Z,76.16
2023-09-10T21:40:41.983Z,76.56
2023-09-10T21:43:08.946Z,76.57
2023-09-10T21:48:06.623Z,80.76
2023-09-10T21:50:33.250Z,76.37
2023-09-10T21:52:59.799Z,76.54
2023-09-10T21:55:26.352Z,76.83
2023-09-10T21:57:53.017Z,77.08
2023-09-10T22:00:19.699Z,77.45
2023-09-10T22:02:46.322Z,77.62
2023-09-10T22:05:12.952Z,77.79
2023-09-10T22:07:39.579Z,77.21
2023-09-10T22:10:06.731Z,77.27
2023-09-10T22:12:33.280Z,77.26
2023-09-10T22:15:04.897Z,78.86
2023-09-10T22:17:31.550Z,78.43
2023-09-10T22:19:58.172Z,78.28
2023-09-10T22:22:24.704Z,78.26
2023-09-10T22:24:51.213Z,78.11
2023-09-10T22:27:17.726Z,78.09
2023-09-10T22:29:44.261Z,78.42
2023-09-10T22:32:10.844Z,78.67
2023-09-10T22:34:37.378Z,78.85
2023-09-10T22:37:04.032Z,78.32
2023-09-10T22:39:32.502Z,78.63
2023-09-10T22:41:59.260Z,78.52
2023-09-10T22:44:25.857Z,78.38
2023-09-10T22:46:52.424Z,78.39
2023-09-10T22:49:19.026Z,79.29
2023-09-10T22:51:45.617Z,78.89
2023-09-10T22:54:12.220Z,79.42
2023-09-10T22:56:40.468Z,78.92
2023-09-10T22:59:08.450Z,78.81
2023-09-10T23:01:35.836Z,79.01
2023-09-10T23:04:02.621Z,78.91
2023-09-10T23:06:29.334Z,79.07
2023-09-10T23:08:55.905Z,80.37
2023-09-10T23:11:22.685Z,79.72
2023-09-10T23:13:49.220Z,80.29
2023-09-10T23:16:15.728Z,79.76
2023-09-10T23:18:42.600Z,80.50
2023-09-10T23:21:09.326Z,80.49
2023-09-10T23:23:35.924Z,80.22
2023-09-10T23:26:02.689Z,80.32
2023-09-10T23:28:29.372Z,80.60
2023-09-10T23:30:55.929Z,81.55
2023-09-10T23:33:22.610Z,81.36
2023-09-10T23:35:49.296Z,80.98
2023-09-10T23:38:16.027Z,81.31
2023-09-10T23:40:54.792Z,83.02
2023-09-10T23:43:21.426Z,81.33
2023-09-10T23:45:48.076Z,81.24
2023-09-10T23:48:15.644Z,81.45
2023-09-10T23:50:42.220Z,81.71
2023-09-10T23:53:08.741Z,81.78
2023-09-10T23:55:36.793Z,81.48
2023-09-10T23:58:03.798Z,81.66
